createdAt,value
2022-12-17T00:01:51.731Z,-2.54
2022-12-17T00:04:53.861Z,-2.54
2022-12-17T00:07:59.134Z,-2.52
2022-12-17T00:11:02.872Z,-2.49
2022-12-17T00:14:05.217Z,-2.59
2022-12-17T00:17:08.409Z,-2.49
2022-12-17T00:20:13.344Z,-2.48
2022-12-17T00:23:15.230Z,-2.46
2022-12-17T00:26:17.112Z,-2.47
2022-12-17T00:29:19.592Z,-2.45
2022-12-17T00:32:24.184Z,-2.54
2022-12-17T00:35:26.157Z,-2.60
2022-12-17T00:38:28.061Z,-2.57
2022-12-17T00:41:31.108Z,-2.64
2022-12-17T00:44:33.023Z,-2.70
2022-12-17T00:47:36.279Z,-2.59
2022-12-17T00:50:38.260Z,-2.67
2022-12-17T00:53:40.774Z,-2.73
2022-12-17T00:56:42.844Z,-2.64
2022-12-17T00:59:46.706Z,-2.78
2022-12-17T01:02:52.089Z,-2.79
2022-12-17T01:05:54.353Z,-2.70
2022-12-17T01:08:56.499Z,-2.79
2022-12-17T01:11:58.466Z,-2.80
2022-12-17T01:15:02.182Z,-2.83
2022-12-17T01:18:05.606Z,-2.71
2022-12-17T01:21:07.447Z,-2.71
2022-12-17T01:24:09.494Z,-2.75
2022-12-17T01:27:12.054Z,-2.79
2022-12-17T01:30:13.983Z,-2.75
2022-12-17T01:33:17.238Z,-2.76
2022-12-17T01:36:19.474Z,-2.68
2022-12-17T01:39:21.408Z,-2.67
2022-12-17T01:42:23.539Z,-2.71
2022-12-17T01:45:28.631Z,-2.72
2022-12-17T01:48:37.097Z,-2.63
2022-12-17T01:51:39.005Z,-2.73
2022-12-17T01:54:45.822Z,-2.77
2022-12-17T01:57:47.892Z,-2.75
2022-12-17T02:00:50.170Z,-2.65
2022-12-17T02:03:54.551Z,-2.82
2022-12-17T02:07:08.432Z,-2.80
2022-12-17T02:10:22.740Z,-2.78
2022-12-17T02:13:32.529Z,-2.78
2022-12-17T02:16:42.238Z,-2.76
2022-12-17T02:19:55.360Z,-2.78
2022-12-17T02:23:05.486Z,-2.77
2022-12-17T02:26:13.276Z,-2.77
2022-12-17T02:29:18.259Z,-2.84
2022-12-17T02:32:22.283Z,-2.90
2022-12-17T02:35:28.280Z,-3.04
2022-12-17T02:38:31.693Z,-2.89
2022-12-17T02:41:42.644Z,-2.91
2022-12-17T02:44:47.342Z,-2.93
2022-12-17T02:47:50.989Z,-2.89
2022-12-17T02:50:53.323Z,-2.77
2022-12-17T02:53:55.176Z,-2.90
2022-12-17T02:56:58.556Z,-2.97
2022-12-17T03:00:01.988Z,-3.04
2022-12-17T03:03:04.153Z,-2.93
2022-12-17T03:06:06.440Z,-3.07
2022-12-17T03:09:12.215Z,-3.04
2022-12-17T03:12:14.144Z,-3.13
2022-12-17T03:15:17.409Z,-3.06
2022-12-17T03:18:19.504Z,-3.11
2022-12-17T03:21:21.541Z,-3.07
2022-12-17T03:24:23.381Z,-3.11
2022-12-17T03:27:25.274Z,-3.08
2022-12-17T03:30:31.041Z,-3.19
2022-12-17T03:33:37.196Z,-3.12
2022-12-17T03:36:39.310Z,-3.11
2022-12-17T03:39:41.210Z,-3.17
2022-12-17T03:42:43.069Z,-3.04
2022-12-17T03:45:53.359Z,-3.11
2022-12-17T03:48:55.250Z,-3.07
2022-12-17T03:51:57.144Z,-3.06
2022-12-17T03:54:59.041Z,-3.07
2022-12-17T03:58:00.917Z,-3.05
2022-12-17T04:01:06.134Z,-2.96
2022-12-17T04:04:08.021Z,-2.97
2022-12-17T04:07:10.043Z,-3.05
2022-12-17T04:10:11.929Z,-3.09
2022-12-17T04:13:13.784Z,-3.15
2022-12-17T04:16:17.103Z,-3.12
2022-12-17T04:19:19.084Z,-3.17
2022-12-17T04:22:20.976Z,-3.05
2022-12-17T04:25:22.825Z,-3.09
2022-12-17T04:28:24.742Z,-3.06
2022-12-17T04:31:29.230Z,-3.00
2022-12-17T04:34:31.131Z,-3.07
2022-12-17T04:37:33.062Z,-3.04
2022-12-17T04:40:34.887Z,-2.89
2022-12-17T04:43:36.950Z,-2.97
2022-12-17T04:46:40.471Z,-2.93
2022-12-17T04:49:42.396Z,-3.04
2022-12-17T04:52:44.303Z,-2.93
2022-12-17T04:55:46.330Z,-2.93
2022-12-17T04:58:48.224Z,-2.89
2022-12-17T05:01:51.631Z,-3.01
2022-12-17T05:04:53.555Z,-2.96
2022-12-17T05:07:55.998Z,-2.90
2022-12-17T05:11:01.953Z,-2.80
2022-12-17T05:14:03.907Z,-2.88
2022-12-17T05:17:10.287Z,-2.83
2022-12-17T05:20:12.186Z,-2.92
2022-12-17T05:23:14.090Z,-3.03
2022-12-17T05:26:20.248Z,-3.07
2022-12-17T05:29:22.238Z,-3.07
2022-12-17T05:32:25.560Z,-3.05
2022-12-17T05:35:27.469Z,-3.11
2022-12-17T05:38:29.407Z,-3.03
2022-12-17T05:41:31.338Z,-3.02
2022-12-17T05:44:33.389Z,-2.95
2022-12-17T05:47:36.764Z,-2.94
2022-12-17T05:50:38.613Z,-2.91
2022-12-17T05:53:40.494Z,-2.85
2022-12-17T05:56:42.332Z,-2.81
2022-12-17T05:59:44.253Z,-2.81
2022-12-17T06:02:47.638Z,-2.87
2022-12-17T06:05:54.105Z,-2.93
2022-12-17T06:08:55.973Z,-2.91
2022-12-17T06:12:02.625Z,-2.88
2022-12-17T06:15:08.392Z,-2.97
2022-12-17T06:18:16.513Z,-3.09
2022-12-17T06:21:19.058Z,-2.97
2022-12-17T06:24:20.939Z,-2.95
2022-12-17T06:27:22.818Z,-3.03
2022-12-17T06:30:24.701Z,-2.93
2022-12-17T06:33:28.083Z,-2.93
2022-12-17T06:36:29.915Z,-2.91
2022-12-17T06:39:31.783Z,-2.85
2022-12-17T06:42:33.574Z,-2.85
2022-12-17T06:45:35.493Z,-2.82
2022-12-17T06:48:39.032Z,-2.80
2022-12-17T06:51:40.942Z,-2.77
2022-12-17T06:54:45.825Z,-2.71
2022-12-17T06:57:50.555Z,-2.83
2022-12-17T07:00:52.683Z,-2.83
2022-12-17T07:03:56.090Z,-2.92
2022-12-17T07:06:57.976Z,-2.97
2022-12-17T07:09:59.839Z,-2.95
2022-12-17T07:13:05.439Z,-2.95
2022-12-17T07:16:07.585Z,-3.13
2022-12-17T07:19:10.974Z,-3.17
2022-12-17T07:22:13.048Z,-2.97
2022-12-17T07:25:15.033Z,-2.93
2022-12-17T07:28:16.894Z,-2.93
2022-12-17T07:31:18.812Z,-2.91
2022-12-17T07:34:22.095Z,-2.86
2022-12-17T07:37:24.029Z,-3.10
2022-12-17T07:40:25.867Z,-3.13
2022-12-17T07:43:27.731Z,-3.21
2022-12-17T07:46:29.571Z,-3.15
2022-12-17T07:49:32.831Z,-3.27
2022-12-17T07:52:34.819Z,-3.24
2022-12-17T07:55:36.901Z,-3.24
2022-12-17T07:58:39.429Z,-3.23
2022-12-17T08:01:41.392Z,-3.21
2022-12-17T08:04:46.482Z,-3.15
2022-12-17T08:07:48.321Z,-3.10
2022-12-17T08:10:50.253Z,-3.06
2022-12-17T08:13:52.123Z,-2.93
2022-12-17T08:16:54.076Z,-2.94
2022-12-17T08:19:57.335Z,-2.84
2022-12-17T08:23:02.795Z,-2.91
2022-12-17T08:26:06.371Z,-2.88
2022-12-17T08:29:08.553Z,-2.82
2022-12-17T08:32:10.626Z,-2.77
2022-12-17T08:35:14.044Z,-2.80
2022-12-17T08:38:15.895Z,-2.71
2022-12-17T08:41:17.775Z,-2.82
2022-12-17T08:44:19.625Z,-2.89
2022-12-17T08:47:21.513Z,-2.92
2022-12-17T08:50:25.808Z,-2.75
2022-12-17T08:53:30.685Z,-2.66
2022-12-17T08:56:36.474Z,-2.73
2022-12-17T08:59:38.376Z,-2.58
2022-12-17T09:02:40.458Z,-2.59
2022-12-17T09:05:44.071Z,-2.54
2022-12-17T09:08:46.449Z,-2.43
2022-12-17T09:11:48.408Z,-2.41
2022-12-17T09:14:50.321Z,-2.39
2022-12-17T09:17:52.411Z,-2.28
2022-12-17T09:20:57.511Z,-2.03
2022-12-17T09:23:59.369Z,-2.12
2022-12-17T09:27:01.621Z,-1.96
2022-12-17T09:30:03.855Z,-1.94
2022-12-17T09:33:05.993Z,-1.88
2022-12-17T09:36:09.933Z,-1.89
2022-12-17T09:39:11.823Z,-2.06
2022-12-17T09:42:20.479Z,-2.17
2022-12-17T09:45:27.760Z,-2.28
2022-12-17T09:48:36.022Z,-2.41
2022-12-17T09:51:39.424Z,-2.23
2022-12-17T09:54:45.491Z,-2.40
2022-12-17T09:57:49.439Z,-2.51
2022-12-17T10:00:57.681Z,-2.37
2022-12-17T10:04:04.085Z,-2.25
2022-12-17T10:07:13.433Z,-2.38
2022-12-17T10:10:19.092Z,-2.34
2022-12-17T10:13:23.254Z,-2.25
2022-12-17T10:16:28.254Z,-2.23
2022-12-17T10:19:34.316Z,-2.09
2022-12-17T10:22:45.002Z,-1.85
2022-12-17T10:25:50.904Z,-1.65
2022-12-17T10:29:02.340Z,-1.60
2022-12-17T10:32:10.812Z,-2.02
2022-12-17T10:35:19.015Z,-1.96
2022-12-17T10:38:24.746Z,-2.03
2022-12-17T10:41:28.333Z,-2.09
2022-12-17T10:44:33.808Z,-1.91
2022-12-17T10:47:35.710Z,-1.88
2022-12-17T10:50:41.713Z,-1.76
2022-12-17T10:53:49.561Z,-1.85
2022-12-17T10:56:53.625Z,-1.94
2022-12-17T10:59:55.558Z,-2.01
2022-12-17T11:02:59.406Z,-1.92
2022-12-17T11:06:01.690Z,-1.88
2022-12-17T11:09:05.250Z,-2.02
2022-12-17T11:12:10.321Z,-1.98
2022-12-17T11:15:20.357Z,-1.77
2022-12-17T11:18:27.575Z,-2.00
2022-12-17T11:21:34.891Z,-1.89
2022-12-17T11:24:42.204Z,-1.93
2022-12-17T11:27:48.523Z,-1.83
2022-12-17T11:30:58.279Z,-1.88
2022-12-17T11:34:06.530Z,-1.95
2022-12-17T11:37:17.831Z,-1.86
2022-12-17T11:40:30.608Z,-1.77
2022-12-17T11:43:45.181Z,-1.78
2022-12-17T11:46:55.020Z,-1.75
2022-12-17T11:50:13.217Z,-1.74
2022-12-17T11:53:28.345Z,-1.87
2022-12-17T11:56:37.786Z,-1.85
2022-12-17T11:59:50.960Z,-1.86
2022-12-17T12:03:09.256Z,-1.94
2022-12-17T12:06:17.958Z,-1.95
2022-12-17T12:09:28.923Z,-1.85
2022-12-17T12:12:45.084Z,-1.79
2022-12-17T12:16:01.035Z,-1.77
2022-12-17T12:19:13.092Z,-1.73
2022-12-17T12:22:19.192Z,-1.69
2022-12-17T12:25:37.025Z,-1.62
2022-12-17T12:28:47.543Z,-1.55
2022-12-17T12:31:57.243Z,-1.49
2022-12-17T12:35:03.100Z,-1.59
2022-12-17T12:38:05.687Z,-1.69
2022-12-17T12:41:19.832Z,-1.89
2022-12-17T12:44:34.531Z,-1.99
2022-12-17T12:47:47.814Z,-1.99
2022-12-17T12:50:57.923Z,-2.13
2022-12-17T12:54:02.085Z,-2.00
2022-12-17T12:57:04.130Z,-2.14
2022-12-17T13:00:25.036Z,-2.22
2022-12-17T13:03:33.724Z,-2.45
2022-12-17T13:06:42.143Z,-2.55
2022-12-17T13:09:48.732Z,-2.66
2022-12-17T13:12:51.927Z,-2.60
2022-12-17T13:15:59.812Z,-2.70
2022-12-17T13:19:03.746Z,-2.84
2022-12-17T13:22:27.708Z,-2.75
2022-12-17T13:25:29.719Z,-2.75
2022-12-17T13:28:39.877Z,-2.70
2022-12-17T13:31:53.674Z,-2.71
2022-12-17T13:35:10.249Z,-2.93
2022-12-17T13:38:21.294Z,-2.87
2022-12-17T13:41:28.701Z,-2.98
2022-12-17T13:44:38.664Z,-3.11
2022-12-17T13:47:41.929Z,-3.07
2022-12-17T13:50:53.775Z,-3.17
2022-12-17T13:53:57.722Z,-3.32
2022-12-17T13:57:14.901Z,-3.23
2022-12-17T14:00:23.308Z,-3.47
2022-12-17T14:03:43.418Z,-3.58
2022-12-17T14:06:51.556Z,-3.52
2022-12-17T14:09:54.449Z,-3.58
2022-12-17T14:13:06.036Z,-3.65
2022-12-17T14:16:09.042Z,-3.58
2022-12-17T14:19:12.576Z,-3.59
2022-12-17T14:22:19.783Z,-3.57
2022-12-17T14:25:24.953Z,-3.78
2022-12-17T14:28:32.116Z,-3.74
2022-12-17T14:31:35.202Z,-3.77
2022-12-17T14:34:42.688Z,-3.58
2022-12-17T14:37:47.272Z,-3.48
2022-12-17T14:40:54.000Z,-3.64
2022-12-17T14:43:57.542Z,-3.56
2022-12-17T14:47:11.868Z,-3.64
2022-12-17T14:50:30.438Z,-3.57
2022-12-17T14:53:32.379Z,-3.73
2022-12-17T14:56:34.245Z,-3.69
2022-12-17T14:59:37.856Z,-3.81
2022-12-17T15:02:42.362Z,-3.80
2022-12-17T15:05:48.856Z,-3.68
2022-12-17T15:08:51.888Z,-3.54
2022-12-17T15:11:53.826Z,-3.40
2022-12-17T15:14:55.871Z,-3.37
2022-12-17T15:17:57.896Z,-3.24
2022-12-17T15:21:02.081Z,-3.23
2022-12-17T15:24:04.631Z,-3.35
2022-12-17T15:27:06.598Z,-3.59
2022-12-17T15:30:15.877Z,-3.68
2022-12-17T15:33:17.991Z,-3.54
2022-12-17T15:36:21.460Z,-3.50
2022-12-17T15:39:23.495Z,-3.37
2022-12-17T15:42:25.406Z,-3.24
2022-12-17T15:45:27.502Z,-3.17
2022-12-17T15:48:29.741Z,-3.17
2022-12-17T15:51:33.096Z,-3.05
2022-12-17T15:54:35.308Z,-3.15
2022-12-17T15:57:37.770Z,-3.15
2022-12-17T16:00:39.850Z,-3.01
2022-12-17T16:03:42.700Z,-2.95
2022-12-17T16:06:46.609Z,-2.92
2022-12-17T16:09:48.786Z,-2.93
2022-12-17T16:12:50.676Z,-2.83
2022-12-17T16:16:00.768Z,-2.81
2022-12-17T16:19:05.830Z,-2.77
2022-12-17T16:22:09.541Z,-2.81
2022-12-17T16:25:12.188Z,-2.82
2022-12-17T16:28:16.432Z,-2.82
2022-12-17T16:31:19.244Z,-2.99
2022-12-17T16:34:21.662Z,-3.09
2022-12-17T16:37:25.472Z,-3.10
2022-12-17T16:40:28.060Z,-3.37
2022-12-17T16:43:34.978Z,-3.48
2022-12-17T16:46:38.429Z,-3.40
2022-12-17T16:49:40.804Z,-3.35
2022-12-17T16:52:45.021Z,-3.41
2022-12-17T16:55:59.856Z,-3.56
2022-12-17T16:59:04.876Z,-3.57
2022-12-17T17:02:12.721Z,-3.54
2022-12-17T17:05:15.626Z,-3.56
2022-12-17T17:08:19.207Z,-3.69
2022-12-17T17:11:23.460Z,-3.92
2022-12-17T17:14:26.220Z,-3.92
2022-12-17T17:17:55.406Z,-4.05
2022-12-17T17:20:50.813Z,-3.97
2022-12-17T17:23:57.327Z,-4.02
2022-12-17T17:26:59.595Z,-3.88
2022-12-17T17:30:03.835Z,-4.02
2022-12-17T17:33:06.108Z,-4.02
2022-12-17T17:36:10.819Z,-3.85
2022-12-17T17:39:17.148Z,-3.94
2022-12-17T17:42:19.248Z,-4.08
2022-12-17T17:45:21.492Z,-4.18
2022-12-17T17:48:23.471Z,-4.31
2022-12-17T17:51:59.975Z,-4.32
2022-12-17T17:54:52.105Z,-4.34
2022-12-17T17:57:54.171Z,-4.50
2022-12-17T18:00:56.381Z,-5.03
2022-12-17T18:04:05.046Z,-5.12
2022-12-17T18:10:33.122Z,-5.63
2022-12-17T18:13:35.709Z,-5.56
2022-12-17T18:16:40.314Z,-5.50
2022-12-17T18:19:42.547Z,-5.41
2022-12-17T18:22:45.347Z,-5.34
2022-12-17T18:25:50.673Z,-5.35
2022-12-17T18:28:53.128Z,-5.27
2022-12-17T18:31:55.865Z,-5.34
2022-12-17T18:34:57.874Z,-5.33
2022-12-17T18:38:02.201Z,-5.28
2022-12-17T18:41:12.951Z,-5.22
2022-12-17T18:44:16.110Z,-5.04
2022-12-17T18:47:18.098Z,-5.06
2022-12-17T18:50:20.071Z,-5.09
2022-12-17T18:53:22.103Z,-5.64
2022-12-17T18:56:52.617Z,-5.58
2022-12-17T18:59:49.397Z,-5.51
2022-12-17T19:02:51.575Z,-5.44
2022-12-17T19:05:54.520Z,-5.87
2022-12-17T19:08:59.646Z,-6.01
2022-12-17T19:12:05.564Z,-5.81
2022-12-17T19:15:09.091Z,-6.02
2022-12-17T19:18:11.360Z,-6.20
2022-12-17T19:21:13.713Z,-6.38
2022-12-17T19:24:19.731Z,-6.35
2022-12-17T19:27:25.633Z,-6.39
2022-12-17T19:30:27.738Z,-6.31
2022-12-17T19:33:30.457Z,-6.42
2022-12-17T19:36:34.086Z,-6.42
2022-12-17T19:39:40.441Z,-6.36
2022-12-17T19:42:44.238Z,-6.34
2022-12-17T19:45:46.687Z,-6.22
2022-12-17T19:48:49.760Z,-6.18
2022-12-17T19:51:54.022Z,-6.08
2022-12-17T19:54:56.845Z,-6.03
2022-12-17T19:58:00.693Z,-5.84
2022-12-17T20:01:06.533Z,-5.58
2022-12-17T20:04:12.433Z,-5.39
2022-12-17T20:07:14.399Z,-5.32
2022-12-17T20:10:17.297Z,-5.04
2022-12-17T20:13:23.350Z,-4.91
2022-12-17T20:16:28.439Z,-4.93
2022-12-17T20:19:32.624Z,-4.90
2022-12-17T20:22:34.836Z,-4.93
2022-12-17T20:25:37.532Z,-4.83
2022-12-17T20:28:41.510Z,-4.77
2022-12-17T20:31:49.439Z,-4.69
2022-12-17T20:34:52.671Z,-4.75
2022-12-17T20:37:55.344Z,-4.83
2022-12-17T20:40:57.396Z,-4.73
2022-12-17T20:44:03.924Z,-4.68
2022-12-17T20:47:06.112Z,-4.63
2022-12-17T20:50:11.290Z,-4.59
2022-12-17T20:53:13.246Z,-4.63
2022-12-17T20:56:17.715Z,-4.50
2022-12-17T20:59:21.071Z,-4.57
2022-12-17T21:02:25.556Z,-4.54
2022-12-17T21:05:28.169Z,-4.50
2022-12-17T21:08:31.786Z,-4.54
2022-12-17T21:11:36.283Z,-4.52
2022-12-17T21:14:39.939Z,-4.49
2022-12-17T21:17:41.901Z,-4.50
2022-12-17T21:20:44.091Z,-4.48
2022-12-17T21:23:47.034Z,-4.44
2022-12-17T21:26:49.691Z,-4.38
2022-12-17T21:29:53.361Z,-4.34
2022-12-17T21:32:55.522Z,-4.33
2022-12-17T21:36:01.812Z,-4.30
2022-12-17T21:39:12.351Z,-4.29
2022-12-17T21:42:14.371Z,-4.26
2022-12-17T21:45:17.946Z,-4.26
2022-12-17T21:48:20.146Z,-4.20
2022-12-17T21:51:22.675Z,-4.23
2022-12-17T21:54:25.650Z,-4.27
2022-12-17T21:57:27.593Z,-4.48
2022-12-17T22:00:30.928Z,-4.27
2022-12-17T22:03:32.828Z,-4.21
2022-12-17T22:06:37.407Z,-4.24
2022-12-17T22:10:10.695Z,-4.29
2022-12-17T22:13:11.480Z,-4.22
2022-12-17T22:16:15.143Z,-4.11
2022-12-17T22:19:22.643Z,-4.20
2022-12-17T22:22:24.726Z,-4.27
2022-12-17T22:25:29.151Z,-4.25
2022-12-17T22:28:31.089Z,-4.26
2022-12-17T22:31:37.910Z,-4.31
2022-12-17T22:36:05.590Z,-4.17
2022-12-17T22:41:51.458Z,-4.21
2022-12-17T22:44:39.292Z,-4.17
2022-12-17T22:44:53.252Z,-4.24
2022-12-17T22:47:57.398Z,-4.22
2022-12-17T22:51:13.983Z,-4.24
2022-12-17T22:54:20.600Z,-4.14
2022-12-17T22:57:36.024Z,-4.15
2022-12-17T23:00:39.840Z,-4.16
2022-12-17T23:03:43.964Z,-4.21
2022-12-17T23:06:46.571Z,-4.10
2022-12-17T23:09:50.026Z,-4.08
2022-12-17T23:12:54.462Z,-4.03
2022-12-17T23:15:56.414Z,-4.15
2022-12-17T23:19:00.534Z,-4.09
2022-12-17T23:22:02.878Z,-4.13
2022-12-17T23:25:05.636Z,-4.03
2022-12-17T23:28:07.608Z,-4.02
2022-12-17T23:31:11.557Z,-3.96
2022-12-17T23:34:15.348Z,-3.96
2022-12-17T23:37:17.521Z,-3.96
2022-12-17T23:40:19.553Z,-4.01
2022-12-17T23:43:21.561Z,-4.04
2022-12-17T23:46:25.467Z,-4.03
2022-12-17T23:49:28.839Z,-4.05
2022-12-17T23:52:32.205Z,-4.05
2022-12-17T23:55:34.257Z,-4.08
2022-12-17T23:58:37.815Z,-4.04
